Time;durP1;ratioP1;P1;durP2;ratioP2;P2;SDS_P1;SDS_P2;PMS_P1;PMS_P2;Temp;Humidity;BMP_temperature;BMP_pressure;BME280_temperature;BME280_humidity;BME280_pressure;Samples;Min_cycle;Max_cycle;Signal;HPM_P1;HPM_P2
2021/08/24 00:00:25;;;;;;;6.17;3.93;;;;;;;15.70;78.72;102942.75;688008;28;1919;-65
2021/08/24 00:00:45;;;;;;;7.10;3.83;;;;;;;15.71;78.73;102940.03;688038;28;2033;-65
2021/08/24 00:01:06;;;;;;;7.10;3.80;;;;;;;15.71;78.77;102939.16;687994;28;1006;-64
2021/08/24 00:01:26;;;;;;;6.83;3.77;;;;;;;15.72;78.93;102946.22;685580;28;1499;-65
2021/08/24 00:01:46;;;;;;;6.35;3.75;;;;;;;15.68;78.69;102941.91;685516;28;992;-65
2021/08/24 00:02:06;;;;;;;7.67;4.10;;;;;;;15.64;78.91;102941.97;685310;28;960;-65
2021/08/24 00:02:27;;;;;;;7.37;3.87;;;;;;;15.68;78.80;102939.25;685343;28;967;-66
2021/08/24 00:02:47;;;;;;;5.90;3.85;;;;;;;15.69;79.04;102935.66;685063;28;991;-65
2021/08/24 00:03:07;;;;;;;5.73;3.93;;;;;;;15.65;79.01;102942.84;685351;28;868;-65
2021/08/24 00:03:28;;;;;;;6.20;3.80;;;;;;;15.62;78.94;102940.25;685454;28;952;-65
2021/08/24 00:03:48;;;;;;;7.10;3.80;;;;;;;15.65;79.11;102943.69;685478;28;786;-64
2021/08/24 00:04:09;;;;;;;7.53;3.93;;;;;;;15.67;78.98;102938.38;685390;28;863;-65
2021/08/24 00:04:30;;;;;;;8.38;3.85;;;;;;;15.69;78.78;102938.34;685446;28;853;-65
2021/08/24 00:04:51;;;;;;;7.65;3.50;;;;;;;15.72;78.89;102935.59;685431;28;836;-64
2021/08/24 00:05:16;;;;;;;6.20;3.60;;;;;;;15.74;79.10;102933.75;685527;28;852;-65
2021/08/24 00:05:41;;;;;;;6.72;3.80;;;;;;;15.72;78.93;102939.09;685571;28;1042;-65
2021/08/24 00:06:03;;;;;;;6.50;3.80;;;;;;;15.69;78.82;102936.56;685401;28;915;-65
2021/08/24 00:06:24;;;;;;;6.47;3.70;;;;;;;15.71;78.98;102939.16;685371;28;931;-65
2021/08/24 00:06:44;;;;;;;7.27;4.07;;;;;;;15.73;78.97;102932.91;685359;28;1524;-64
2021/08/24 00:07:04;;;;;;;6.27;3.90;;;;;;;15.72;78.93;102940.91;685377;28;1462;-64
2021/08/24 00:07:25;;;;;;;6.67;4.00;;;;;;;15.74;78.66;102936.41;685535;28;864;-65
2021/08/24 00:07:45;;;;;;;6.27;3.80;;;;;;;15.76;78.80;102931.91;685407;28;979;-65
2021/08/24 00:08:06;;;;;;;7.10;3.87;;;;;;;15.76;78.86;102942.53;684696;28;1716;-64
2021/08/24 00:08:27;;;;;;;6.95;3.90;;;;;;;15.74;78.73;102936.41;683810;28;1470;-64
2021/08/24 00:08:50;;;;;;;6.73;3.90;;;;;;;15.76;78.72;102938.13;682645;29;1237;-64
2021/08/24 00:09:10;;;;;;;6.38;4.13;;;;;;;15.75;78.54;102931.03;682662;29;1352;-64
2021/08/24 00:09:36;;;;;;;7.85;4.43;;;;;;;15.77;78.79;102937.19;682777;28;905;-64
2021/08/24 00:09:56;;;;;;;7.07;3.85;;;;;;;15.76;78.71;102937.22;682825;28;1532;-64
2021/08/24 00:10:17;;;;;;;7.77;3.90;;;;;;;15.75;78.53;102930.19;682806;28;1363;-63
2021/08/24 00:10:57;;;;;;;7.03;3.95;;;;;;;15.71;78.95;102933.84;682680;28;853;-63
2021/08/24 00:11:17;;;;;;;7.13;4.05;;;;;;;15.73;78.82;102932.03;682755;28;1604;-65
2021/08/24 00:11:40;;;;;;;6.20;3.90;;;;;;;15.72;78.85;102933.78;682701;29;864;-65
2021/08/24 00:12:01;;;;;;;6.20;4.00;;;;;;;15.69;79.08;102933.91;682837;28;894;-64
2021/08/24 00:12:21;;;;;;;6.20;4.13;;;;;;;15.65;79.15;102932.19;682537;28;995;-63
2021/08/24 00:12:42;;;;;;;6.50;4.10;;;;;;;15.66;79.00;102932.22;682506;29;912;-64
2021/08/24 00:13:03;;;;;;;6.93;4.10;;;;;;;15.66;78.87;102929.56;682619;29;969;-65
2021/08/24 00:13:26;;;;;;;7.03;3.97;;;;;;;15.69;79.22;102931.25;682697;28;884;-65
2021/08/24 00:13:49;;;;;;;7.10;4.30;;;;;;;15.69;78.94;102931.25;682814;28;929;-64
2021/08/24 00:14:10;;;;;;;5.88;3.78;;;;;;;15.70;79.11;102932.13;685371;28;1450;-64
2021/08/24 00:14:33;;;;;;;6.77;3.90;;;;;;;15.73;78.77;102929.38;685206;28;1374;-64
2021/08/24 00:14:53;;;;;;;6.15;4.10;;;;;;;15.76;79.07;102934.56;685040;28;1602;-64
2021/08/24 00:15:16;;;;;;;7.05;4.07;;;;;;;15.72;78.90;102924.94;685329;28;1046;-65
2021/08/24 00:15:40;;;;;;;8.18;4.10;;;;;;;15.72;79.06;102931.13;685473;28;964;-64
2021/08/24 00:16:00;;;;;;;7.05;4.20;;;;;;;15.69;79.20;102930.34;685346;28;821;-64
2021/08/24 00:16:41;;;;;;;7.57;4.50;;;;;;;15.69;79.09;102930.34;685364;28;849;-64
2021/08/24 00:17:01;;;;;;;7.25;4.18;;;;;;;15.67;79.12;102933.06;685407;28;872;-64
2021/08/24 00:17:22;;;;;;;6.60;3.87;;;;;;;15.66;79.13;102932.22;685348;28;905;-64
2021/08/24 00:17:42;;;;;;;6.55;3.90;;;;;;;15.68;79.24;102933.94;685477;28;912;-64
2021/08/24 00:18:03;;;;;;;7.03;4.20;;;;;;;15.64;79.46;102934.00;685391;28;870;-65
2021/08/24 00:18:24;;;;;;;6.68;4.45;;;;;;;15.65;79.09;102934.88;685043;28;1572;-64
2021/08/24 00:18:45;;;;;;;6.80;4.20;;;;;;;15.64;79.37;102934.00;685031;28;1557;-64
2021/08/24 00:19:05;;;;;;;6.38;4.05;;;;;;;15.61;79.30;102936.75;685274;28;1446;-64
2021/08/24 00:19:25;;;;;;;6.63;4.10;;;;;;;15.60;79.65;102936.81;685400;28;944;-64
2021/08/24 00:19:46;;;;;;;7.03;4.10;;;;;;;15.63;79.65;102931.41;685499;28;805;-64
2021/08/24 00:20:07;;;;;;;6.80;4.20;;;;;;;15.64;79.42;102938.44;685296;28;1980;-64
2021/08/24 00:20:31;;;;;;;6.15;3.92;;;;;;;15.62;79.61;102935.84;685287;28;1015;-64
2021/08/24 00:20:53;;;;;;;6.50;4.10;;;;;;;15.61;79.51;102936.75;685246;28;853;-65
2021/08/24 00:21:13;;;;;;;6.45;4.22;;;;;;;15.60;79.60;102929.69;685332;28;1391;-64
2021/08/24 00:21:33;;;;;;;7.53;4.40;;;;;;;15.61;79.74;102928.78;685451;28;834;-64
2021/08/24 00:21:54;;;;;;;7.47;4.20;;;;;;;15.63;79.48;102937.59;685355;28;1011;-65
2021/08/24 00:22:14;;;;;;;6.63;4.13;;;;;;;15.63;79.51;102932.25;685480;28;995;-64
2021/08/24 00:22:37;;;;;;;7.07;4.35;;;;;;;15.61;79.51;102930.56;685377;28;912;-64
2021/08/24 00:23:07;;;;;;;7.18;4.55;;;;;;;15.60;79.86;102935.00;684821;28;1414;-63
2021/08/24 00:23:29;;;;;;;7.82;4.60;;;;;;;15.61;79.62;102938.53;682718;28;985;-64
2021/08/24 00:23:50;;;;;;;7.85;4.50;;;;;;;15.58;79.90;102936.84;682686;28;841;-64
2021/08/24 00:24:14;;;;;;;8.33;4.70;;;;;;;15.60;79.57;102935.00;682789;28;899;-65
2021/08/24 00:24:34;;;;;;;8.60;4.72;;;;;;;15.56;79.89;102941.34;682563;28;1071;-64
2021/08/24 00:24:55;;;;;;;7.67;4.50;;;;;;;15.55;80.11;102934.25;682530;28;1443;-64
2021/08/24 00:25:15;;;;;;;7.53;4.50;;;;;;;15.57;80.06;102937.75;682757;28;837;-64
2021/08/24 00:25:37;;;;;;;7.27;4.87;;;;;;;15.58;79.69;102931.50;682739;28;932;-64
2021/08/24 00:25:58;;;;;;;6.10;4.35;;;;;;;15.59;79.69;102938.59;683440;28;1521;-64
2021/08/24 00:26:19;;;;;;;7.78;4.57;;;;;;;15.59;79.98;102935.94;685299;28;838;-63
2021/08/24 00:26:39;;;;;;;8.38;4.57;;;;;;;15.59;80.07;102938.59;685330;28;813;-64
2021/08/24 00:27:00;;;;;;;6.83;4.40;;;;;;;15.59;80.10;102930.63;685324;28;1437;-63
2021/08/24 00:27:20;;;;;;;7.23;4.50;;;;;;;15.60;79.70;102937.66;685284;28;1023;-64
2021/08/24 00:27:40;;;;;;;7.67;4.60;;;;;;;15.60;79.77;102931.50;685436;28;842;-64
2021/08/24 00:28:01;;;;;;;8.20;4.78;;;;;;;15.60;79.84;102940.31;685468;28;877;-64
2021/08/24 00:28:21;;;;;;;7.40;4.40;;;;;;;15.58;79.93;102934.16;685359;28;830;-64
2021/08/24 00:28:41;;;;;;;6.43;4.30;;;;;;;15.54;80.26;102932.53;684490;28;1493;-63
2021/08/24 00:29:02;;;;;;;8.43;4.73;;;;;;;15.54;80.09;102932.53;685255;28;1362;-63
2021/08/24 00:29:22;;;;;;;7.72;4.72;;;;;;;15.53;80.10;102936.09;685343;28;861;-65
2021/08/24 00:29:43;;;;;;;7.33;4.60;;;;;;;15.51;80.33;102935.28;685455;28;940;-65
2021/08/24 00:30:07;;;;;;;6.43;4.43;;;;;;;15.53;80.47;102936.09;685440;28;991;-65
2021/08/24 00:30:28;;;;;;;6.43;4.43;;;;;;;15.52;80.51;102933.47;685295;28;1023;-64
2021/08/24 00:30:51;;;;;;;8.17;4.77;;;;;;;15.47;80.22;102935.41;685326;28;849;-64
2021/08/24 00:31:12;;;;;;;8.07;4.88;;;;;;;15.51;80.61;102937.06;685316;28;1040;-65
2021/08/24 00:31:32;;;;;;;8.63;4.60;;;;;;;15.51;80.54;102935.28;685411;28;876;-64
2021/08/24 00:31:53;;;;;;;7.43;4.80;;;;;;;15.52;80.59;102939.69;685417;28;1008;-64
2021/08/24 00:32:13;;;;;;;6.45;4.40;;;;;;;15.52;80.65;102939.69;685351;28;917;-66
2021/08/24 00:32:34;;;;;;;6.43;4.60;;;;;;;15.52;80.30;102939.69;685440;28;852;-64
2021/08/24 00:32:54;;;;;;;6.55;4.60;;;;;;;15.49;80.42;102936.25;684950;28;893;-65
2021/08/24 00:33:16;;;;;;;6.63;4.53;;;;;;;15.51;80.56;102940.59;685208;28;840;-65
2021/08/24 00:33:39;;;;;;;7.80;5.00;;;;;;;15.49;80.63;102938.91;685455;28;967;-63
2021/08/24 00:33:59;;;;;;;7.35;4.85;;;;;;;15.48;80.66;102938.00;685330;28;810;-63
2021/08/24 00:34:20;;;;;;;6.82;4.60;;;;;;;15.45;80.72;102940.78;685486;28;983;-64
2021/08/24 00:34:40;;;;;;;7.43;4.70;;;;;;;15.48;80.77;102938.00;685377;28;918;-63
2021/08/24 00:35:01;;;;;;;8.47;4.90;;;;;;;15.49;80.54;102934.47;685279;28;951;-63
2021/08/24 00:35:21;;;;;;;7.75;4.65;;;;;;;15.51;80.73;102937.94;685365;28;868;-63
2021/08/24 00:35:42;;;;;;;7.77;4.90;;;;;;;15.50;80.67;102933.53;685426;28;803;-64
2021/08/24 00:36:03;;;;;;;7.70;5.05;;;;;;;15.54;80.65;102937.84;685363;28;932;-64
2021/08/24 00:36:23;;;;;;;8.00;4.90;;;;;;;15.55;80.50;102939.56;685463;28;883;-63
2021/08/24 00:36:43;;;;;;;8.45;4.85;;;;;;;15.52;80.40;102937.03;685330;28;1135;-64
2021/08/24 00:37:04;;;;;;;7.20;4.80;;;;;;;15.52;80.62;102941.44;685197;28;1127;-63
2021/08/24 00:37:24;;;;;;;6.80;4.70;;;;;;;15.52;80.65;102939.69;684966;28;989;-65
2021/08/24 00:37:45;;;;;;;7.50;4.82;;;;;;;15.53;80.77;102943.22;685384;28;942;-64
2021/08/24 00:38:11;;;;;;;7.28;4.82;;;;;;;15.55;80.61;102944.88;684715;28;1561;-64
2021/08/24 00:38:31;;;;;;;6.57;4.50;;;;;;;15.56;80.28;102938.69;682715;28;856;-64
2021/08/24 00:38:51;;;;;;;6.37;4.50;;;;;;;15.57;80.17;102936.88;682601;28;1330;-64
2021/08/24 00:39:12;;;;;;;7.73;4.80;;;;;;;15.58;80.37;102939.50;682680;28;810;-64
2021/08/24 00:39:32;;;;;;;6.73;4.57;;;;;;;15.56;80.52;102943.13;682729;28;976;-64
2021/08/24 00:39:52;;;;;;;6.50;4.87;;;;;;;15.54;80.80;102936.97;682717;29;1043;-64
2021/08/24 00:40:14;;;;;;;7.63;4.70;;;;;;;15.53;80.67;102944.09;682613;28;1965;-64
2021/08/24 00:40:35;;;;;;;8.75;4.88;;;;;;;15.54;80.58;102937.84;682486;28;2110;-64
2021/08/24 00:41:02;;;;;;;8.35;4.70;;;;;;;15.55;80.67;102938.72;682766;29;972;-65
2021/08/24 00:41:24;;;;;;;7.90;4.90;;;;;;;15.52;80.75;102934.38;682686;28;867;-64
2021/08/24 00:41:45;;;;;;;8.10;5.00;;;;;;;15.53;80.45;102941.44;682342;29;1359;-64
2021/08/24 00:42:13;;;;;;;7.03;5.00;;;;;;;15.52;80.85;102944.13;682750;29;936;-64
2021/08/24 00:42:33;;;;;;;8.70;5.05;;;;;;;15.52;80.68;102939.69;682662;28;873;-64
2021/08/24 00:42:55;;;;;;;7.30;4.82;;;;;;;15.51;80.78;102940.59;682231;29;928;-64
2021/08/24 00:43:16;;;;;;;8.82;4.70;;;;;;;15.54;80.73;102948.47;682670;29;839;-64
2021/08/24 00:43:38;;;;;;;7.17;4.63;;;;;;;15.52;80.66;102939.69;682669;29;873;-64
2021/08/24 00:43:58;;;;;;;8.00;4.93;;;;;;;15.50;80.68;102946.81;682869;29;996;-64
2021/08/24 00:44:18;;;;;;;7.67;4.87;;;;;;;15.53;80.59;102945.88;684579;28;1466;-64
2021/08/24 00:44:43;;;;;;;7.80;5.10;;;;;;;15.47;80.82;102946.91;685434;28;877;-64
2021/08/24 00:45:06;;;;;;;8.70;5.10;;;;;;;15.46;81.10;102950.50;685281;28;966;-64
2021/08/24 00:45:27;;;;;;;7.93;4.90;;;;;;;15.46;80.96;102945.19;685284;28;871;-65
2021/08/24 00:45:54;;;;;;;7.40;4.67;;;;;;;15.46;80.73;102939.00;685348;28;982;-64
2021/08/24 00:46:41;;;;;;;6.90;4.70;;;;;;;15.43;80.95;102945.25;685343;28;874;-64
2021/08/24 00:47:11;;;;;;;8.27;5.10;;;;;;;15.47;80.93;102946.03;685076;28;1763;-64
2021/08/24 00:47:34;;;;;;;8.05;4.97;;;;;;;15.44;81.05;102944.34;685764;28;1078;-64
2021/08/24 00:47:54;;;;;;;7.00;5.25;;;;;;;15.50;81.06;102944.16;685954;28;856;-64
2021/08/24 00:48:14;;;;;;;7.03;5.20;;;;;;;15.47;81.07;102944.25;685003;28;1560;-64
2021/08/24 00:48:35;;;;;;;7.27;5.20;;;;;;;15.48;80.91;102943.31;685953;28;989;-64
2021/08/24 00:49:03;;;;;;;7.47;4.93;;;;;;;15.44;81.06;102941.69;685740;28;1230;-64
2021/08/24 00:49:29;;;;;;;7.53;4.80;;;;;;;15.42;81.30;102952.38;685918;28;876;-64
2021/08/24 00:49:50;;;;;;;7.97;4.80;;;;;;;15.41;81.15;102945.28;685957;28;952;-64
2021/08/24 00:50:35;;;;;;;8.27;4.90;;;;;;;15.44;81.23;102942.56;685771;28;1043;-64
2021/08/24 00:50:56;;;;;;;8.70;4.95;;;;;;;15.45;80.92;102938.13;685896;28;898;-64
2021/08/24 00:51:18;;;;;;;8.50;4.97;;;;;;;15.40;81.29;102945.34;685965;28;892;-66
2021/08/24 00:51:41;;;;;;;8.13;4.85;;;;;;;15.40;81.41;102946.22;685919;28;1010;-65
2021/08/24 00:52:17;;;;;;;7.90;4.80;;;;;;;15.41;81.03;102947.09;685751;28;881;-65
2021/08/24 00:52:37;;;;;;;8.02;4.90;;;;;;;15.39;81.53;102943.63;685622;28;912;-64
2021/08/24 00:53:05;;;;;;;7.30;4.70;;;;;;;15.39;81.23;102940.97;685221;28;870;-65
2021/08/24 00:53:33;;;;;;;8.25;5.15;;;;;;;15.36;81.33;102946.34;683079;28;940;-65
2021/08/24 00:53:56;;;;;;;8.50;5.10;;;;;;;15.38;81.45;102948.06;681787;28;1054;-64
2021/08/24 00:54:20;;;;;;;7.97;4.80;;;;;;;15.40;81.45;102945.34;683220;28;897;-65
2021/08/24 00:54:44;;;;;;;7.78;4.70;;;;;;;15.42;81.31;102946.19;682852;28;1023;-64
2021/08/24 00:55:05;;;;;;;6.90;4.78;;;;;;;15.39;81.25;102943.63;683174;28;959;-65
2021/08/24 00:55:26;;;;;;;6.35;4.68;;;;;;;15.39;81.43;102948.94;683237;28;1004;-64
2021/08/24 00:55:47;;;;;;;7.25;4.70;;;;;;;15.40;81.48;102948.88;683112;28;988;-64
2021/08/24 00:56:09;;;;;;;8.13;4.80;;;;;;;15.39;81.38;102948.94;683149;28;1003;-63
2021/08/24 00:56:33;;;;;;;7.57;4.57;;;;;;;15.34;81.69;102949.03;683163;28;948;-64
2021/08/24 00:56:57;;;;;;;8.05;4.97;;;;;;;15.34;81.65;102948.19;683102;28;1011;-66
2021/08/24 00:57:20;;;;;;;7.18;4.60;;;;;;;15.37;81.36;102948.97;683298;28;845;-65
2021/08/24 00:57:49;;;;;;;7.35;5.00;;;;;;;15.38;81.54;102941.84;683080;28;825;-65
2021/08/24 00:58:12;;;;;;;8.73;5.00;;;;;;;15.39;81.35;102949.81;683212;28;1604;-65
2021/08/24 00:58:32;;;;;;;7.70;4.68;;;;;;;15.35;81.13;102942.84;685447;28;1485;-62
2021/08/24 00:58:52;;;;;;;8.02;5.10;;;;;;;15.34;81.66;102945.53;685709;28;1303;-65
2021/08/24 00:59:14;;;;;;;8.13;5.00;;;;;;;15.35;81.41;102952.59;685833;28;1050;-65
2021/08/24 00:59:35;;;;;;;7.20;4.70;;;;;;;15.34;81.67;102950.84;685770;28;913;-65
2021/08/24 01:00:04;;;;;;;7.95;5.10;;;;;;;15.33;81.43;102944.66;685838;28;1070;-65
2021/08/24 01:00:27;;;;;;;6.47;4.63;;;;;;;15.32;81.75;102942.06;685752;28;900;-65
2021/08/24 01:00:48;;;;;;;7.65;4.55;;;;;;;15.34;81.59;102950.84;685788;28;1058;-65
2021/08/24 01:01:09;;;;;;;8.00;4.80;;;;;;;15.32;81.68;102947.38;685788;28;1030;-65
2021/08/24 01:01:30;;;;;;;7.80;4.80;;;;;;;15.33;81.87;102949.97;685748;28;748;-65
2021/08/24 01:01:50;;;;;;;8.70;5.10;;;;;;;15.33;81.52;102951.75;685904;28;896;-65
2021/08/24 01:02:12;;;;;;;7.27;4.60;;;;;;;15.33;81.75;102954.41;685789;28;1022;-66
2021/08/24 01:02:35;;;;;;;6.47;4.40;;;;;;;15.30;81.67;102949.19;685837;28;1030;-64
2021/08/24 01:03:08;;;;;;;6.40;4.60;;;;;;;15.27;81.84;102954.56;685366;28;960;-64
2021/08/24 01:03:35;;;;;;;7.70;4.80;;;;;;;15.28;82.11;102951.00;685873;28;856;-65
2021/08/24 01:03:56;;;;;;;7.13;4.80;;;;;;;15.31;82.07;102951.81;685852;28;907;-64
2021/08/24 01:04:19;;;;;;;8.40;5.10;;;;;;;15.28;82.10;102948.34;685804;28;1089;-66
2021/08/24 01:04:39;;;;;;;8.27;4.93;;;;;;;15.26;82.18;102953.72;685765;28;931;-64
2021/08/24 01:04:59;;;;;;;6.90;4.47;;;;;;;15.24;81.85;102952.88;685661;28;1003;-64
2021/08/24 01:05:20;;;;;;;7.13;4.68;;;;;;;15.23;82.00;102947.63;685841;28;856;-65
2021/08/24 01:05:43;;;;;;;8.23;5.07;;;;;;;15.25;82.19;102946.66;685933;28;923;-65
2021/08/24 01:06:34;;;;;;;7.88;5.10;;;;;;;15.27;82.08;102946.59;685688;28;1035;-65
2021/08/24 01:07:17;;;;;;;7.68;4.90;;;;;;;15.23;82.21;102952.94;684699;28;1704;-65
2021/08/24 01:07:54;;;;;;;7.68;5.13;;;;;;;15.24;82.00;102949.34;685755;28;1102;-64
2021/08/24 01:08:29;;;;;;;7.38;4.80;;;;;;;15.27;82.11;102957.22;684206;28;1583;-64
2021/08/24 01:09:11;;;;;;;8.35;5.05;;;;;;;15.22;82.05;102951.19;682864;29;1362;-64
2021/08/24 01:10:14;;;;;;;8.57;4.70;;;;;;;15.25;81.85;102959.09;683135;29;858;-65
2021/08/24 01:10:46;;;;;;;8.25;4.85;;;;;;;15.22;82.03;102957.38;677368;29;1368;-65
2021/08/24 01:11:40;;;;;;;7.80;5.20;;;;;;;15.24;82.13;102966.16;677409;29;993;-65
2021/08/24 01:12:25;;;;;;;6.78;4.57;;;;;;;15.23;82.03;102951.13;683169;29;1602;-65
2021/08/24 01:12:49;;;;;;;7.32;4.93;;;;;;;15.20;81.91;102953.88;682527;29;957;-64
2021/08/24 01:13:34;;;;;;;7.60;4.88;;;;;;;15.17;81.81;102952.19;683110;29;992;-65
2021/08/24 01:14:21;;;;;;;8.40;4.97;;;;;;;15.14;82.17;102962.00;685705;28;1494;-65
2021/08/24 01:15:00;;;;;;;7.60;4.68;;;;;;;15.10;81.97;102955.03;688507;28;911;-65
2021/08/24 01:15:45;;;;;;;7.47;5.07;;;;;;;15.11;82.29;102954.16;688353;28;1007;-65
2021/08/24 01:16:23;;;;;;;8.05;5.20;;;;;;;15.07;82.41;102952.47;688507;28;879;-65
2021/08/24 01:16:56;;;;;;;9.68;5.30;;;;;;;15.13;82.05;102952.31;688420;28;935;-65
2021/08/24 01:17:25;;;;;;;7.40;4.68;;;;;;;15.11;82.17;102952.38;688307;28;1042;-65
2021/08/24 01:18:27;;;;;;;9.98;5.20;;;;;;;15.01;82.30;102950.88;688491;28;899;-65
2021/08/24 01:19:05;;;;;;;7.22;4.70;;;;;;;14.99;82.49;102943.84;683069;28;1455;-65
2021/08/24 01:19:34;;;;;;;7.63;5.30;;;;;;;14.94;82.59;102951.94;683022;29;1095;-64
2021/08/24 01:20:16;;;;;;;7.72;4.93;;;;;;;14.94;82.69;102951.94;683098;29;833;-64
2021/08/24 01:21:14;;;;;;;7.53;4.78;;;;;;;14.97;82.56;102951.88;683128;28;951;-64
2021/08/24 01:22:15;;;;;;;7.78;4.68;;;;;;;14.94;82.60;102954.59;684726;28;1521;-65
2021/08/24 01:23:19;;;;;;;7.53;4.97;;;;;;;14.98;82.48;102953.59;685501;28;912;-64
2021/08/24 01:23:50;;;;;;;8.80;4.95;;;;;;;14.92;82.52;102953.75;682827;28;813;-65
2021/08/24 01:25:03;;;;;;;8.25;5.22;;;;;;;14.87;83.15;102959.22;682907;29;960;-64
2021/08/24 01:25:44;;;;;;;6.60;5.03;;;;;;;14.88;82.82;102962.72;677215;29;1568;-64
2021/08/24 01:26:16;;;;;;;8.07;5.53;;;;;;;14.87;83.05;102961.84;678053;28;1519;-63
2021/08/24 01:26:54;;;;;;;7.57;5.13;;;;;;;14.92;83.11;102953.75;685399;28;1568;-64
2021/08/24 01:27:36;;;;;;;7.95;5.22;;;;;;;14.92;82.93;102954.63;685570;28;829;-65
2021/08/24 01:28:09;;;;;;;8.40;5.35;;;;;;;14.91;82.93;102952.91;684207;28;963;-65
2021/08/24 01:29:01;;;;;;;7.18;4.90;;;;;;;14.97;82.88;102951.88;685595;28;1529;-66
2021/08/24 01:29:49;;;;;;;7.00;4.97;;;;;;;14.98;82.95;102958.03;685730;28;1067;-65
2021/08/24 01:30:18;;;;;;;8.32;5.25;;;;;;;14.98;82.61;102950.94;685778;28;896;-65
2021/08/24 01:31:10;;;;;;;7.28;5.03;;;;;;;14.99;82.77;102958.00;685722;28;990;-64
2021/08/24 01:31:54;;;;;;;7.93;5.40;;;;;;;14.97;83.12;102962.50;685691;28;934;-64
2021/08/24 01:32:33;;;;;;;7.20;4.90;;;;;;;15.00;82.90;102957.06;685583;28;1334;-64
2021/08/24 01:33:13;;;;;;;7.30;5.18;;;;;;;14.98;83.01;102958.91;685242;28;912;-65
2021/08/24 01:34:09;;;;;;;7.40;5.10;;;;;;;15.01;82.72;102958.84;685751;28;837;-65
2021/08/24 01:34:51;;;;;;;7.40;5.10;;;;;;;14.99;82.84;102958.00;685794;28;1311;-64
2021/08/24 01:35:49;;;;;;;7.65;5.22;;;;;;;14.98;83.05;102958.91;685504;28;1405;-65
2021/08/24 01:36:12;;;;;;;8.75;5.10;;;;;;;15.00;83.30;102958.84;685609;28;1076;-65
2021/08/24 01:36:44;;;;;;;6.75;5.03;;;;;;;15.01;82.98;102964.16;685829;28;904;-64
2021/08/24 01:37:11;;;;;;;8.50;5.40;;;;;;;14.95;83.33;102959.00;685531;28;844;-64
2021/08/24 01:37:52;;;;;;;8.43;5.40;;;;;;;14.99;83.31;102955.34;685651;28;1027;-64
2021/08/24 01:38:22;;;;;;;7.47;5.28;;;;;;;14.98;83.33;102961.56;684118;28;1572;-64
2021/08/24 01:38:58;;;;;;;9.75;5.18;;;;;;;15.00;83.08;102957.06;683086;28;1317;-64
2021/08/24 01:39:25;;;;;;;7.32;5.13;;;;;;;14.99;83.44;102957.13;683032;29;882;-65
2021/08/24 01:39:52;;;;;;;6.85;4.97;;;;;;;14.98;83.17;102956.25;682979;28;1011;-65
2021/08/24 01:40:21;;;;;;;7.50;5.22;;;;;;;14.99;83.01;102960.66;683043;29;1914;-66
2021/08/24 01:40:48;;;;;;;7.93;5.50;;;;;;;15.01;83.15;102950.88;683024;28;912;-65
2021/08/24 01:41:19;;;;;;;8.98;5.18;;;;;;;15.02;83.09;102955.25;682640;29;866;-65
2021/08/24 01:42:08;;;;;;;8.30;5.03;;;;;;;15.06;83.03;102956.91;682806;29;833;-66
2021/08/24 01:42:31;;;;;;;8.95;5.80;;;;;;;15.07;83.02;102952.47;682959;29;1026;-66
2021/08/24 01:42:56;;;;;;;9.65;5.55;;;;;;;15.06;83.47;102956.91;682472;29;1020;-65
2021/08/24 01:43:25;;;;;;;8.57;5.47;;;;;;;15.04;83.30;102958.75;682653;29;1340;-66
2021/08/24 01:43:51;;;;;;;8.05;5.40;;;;;;;15.05;83.34;102955.19;682970;28;1428;-65
2021/08/24 01:44:18;;;;;;;9.68;5.00;;;;;;;15.02;83.01;102960.56;688103;28;1041;-64
2021/08/24 01:44:53;;;;;;;8.23;4.95;;;;;;;15.04;83.01;102961.41;688096;28;1142;-65
2021/08/24 01:45:21;;;;;;;7.95;5.32;;;;;;;15.07;83.27;102958.69;688272;28;869;-65
2021/08/24 01:45:52;;;;;;;7.78;5.10;;;;;;;15.05;83.32;102957.84;688458;28;810;-64
2021/08/24 01:46:25;;;;;;;7.60;5.18;;;;;;;15.04;83.22;102961.41;688340;28;1669;-65
2021/08/24 01:47:03;;;;;;;7.55;5.35;;;;;;;15.03;83.34;102964.09;688039;28;1107;-65
2021/08/24 01:47:32;;;;;;;7.40;5.15;;;;;;;15.02;83.18;102954.38;688202;28;1079;-65
2021/08/24 01:48:08;;;;;;;6.70;5.03;;;;;;;15.01;83.49;102966.81;687089;28;1681;-64
2021/08/24 01:48:37;;;;;;;7.70;5.28;;;;;;;15.00;83.59;102966.81;685598;28;1497;-64
2021/08/24 01:49:01;;;;;;;7.40;5.32;;;;;;;14.98;83.74;102964.22;685683;28;1341;-66
2021/08/24 01:50:05;;;;;;;8.65;5.68;;;;;;;14.94;83.61;102963.44;685738;28;940;-64
2021/08/24 01:50:39;;;;;;;7.60;5.57;;;;;;;14.97;83.71;102967.81;679896;29;1145;-64
2021/08/24 01:51:10;;;;;;;8.35;5.80;;;;;;;14.96;83.86;102960.72;679753;29;1198;-64
2021/08/24 01:51:39;;;;;;;8.05;5.40;;;;;;;14.95;83.63;102962.50;680157;29;899;-64
2021/08/24 01:52:05;;;;;;;8.63;5.45;;;;;;;14.95;83.65;102964.31;680094;29;940;-64
2021/08/24 01:52:33;;;;;;;9.15;5.50;;;;;;;14.92;84.02;102959.06;680197;29;801;-64
2021/08/24 01:53:17;;;;;;;7.88;5.50;;;;;;;14.98;83.60;102964.22;679683;29;884;-65
2021/08/24 01:54:02;;;;;;;8.25;5.40;;;;;;;14.98;83.95;102964.22;677538;29;1012;-65
2021/08/24 01:54:55;;;;;;;8.23;5.70;;;;;;;14.93;83.76;102964.34;673137;29;1817;-68
2021/08/24 01:55:24;;;;;;;8.00;5.50;;;;;;;14.91;84.11;102965.31;672175;29;1398;-66
2021/08/24 01:55:49;;;;;;;8.57;5.78;;;;;;;14.87;83.88;102964.50;677553;29;881;-65
2021/08/24 01:56:13;;;;;;;7.80;5.65;;;;;;;14.88;84.13;102963.59;677580;29;1099;-65
2021/08/24 01:56:38;;;;;;;8.45;5.90;;;;;;;14.90;83.97;102966.19;682502;28;988;-65
2021/08/24 01:57:01;;;;;;;8.80;6.00;;;;;;;14.85;84.37;102962.81;683044;28;1011;-66
2021/08/24 01:57:28;;;;;;;8.45;5.60;;;;;;;14.87;84.44;102966.31;683028;29;1094;-65
2021/08/24 01:58:03;;;;;;;7.28;5.40;;;;;;;14.86;84.42;102967.19;682947;28;953;-65
2021/08/24 01:58:30;;;;;;;8.70;5.43;;;;;;;14.84;84.64;102964.59;682696;28;830;-65
2021/08/24 01:58:55;;;;;;;7.60;5.47;;;;;;;14.86;84.68;102964.53;682468;28;1251;-66
2021/08/24 01:59:22;;;;;;;9.50;6.00;;;;;;;14.86;84.51;102961.88;686166;28;1438;-65
2021/08/24 01:59:55;;;;;;;8.75;5.75;;;;;;;14.84;84.67;102969.03;685814;28;883;-65
2021/08/24 02:00:16;;;;;;;8.63;5.70;;;;;;;14.83;84.66;102967.25;688141;28;1955;-65
2021/08/24 02:00:40;;;;;;;9.90;5.70;;;;;;;14.83;84.45;102969.91;688185;28;1042;-66
2021/08/24 02:01:07;;;;;;;8.95;5.78;;;;;;;14.86;84.51;102969.84;688179;28;870;-65
2021/08/24 02:01:34;;;;;;;8.98;6.20;;;;;;;14.87;84.82;102971.59;688145;28;951;-65
2021/08/24 02:02:27;;;;;;;9.18;5.80;;;;;;;14.85;84.58;102971.63;688241;28;1051;-65
2021/08/24 02:02:57;;;;;;;8.25;5.50;;;;;;;14.84;84.95;102967.25;679834;29;1336;-64
2021/08/24 02:03:23;;;;;;;8.80;5.63;;;;;;;14.82;84.71;102970.84;686056;28;975;-65
2021/08/24 02:03:49;;;;;;;9.32;5.78;;;;;;;14.81;84.77;102966.44;686042;28;944;-65
2021/08/24 02:04:18;;;;;;;8.75;5.82;;;;;;;14.84;84.98;102971.69;686095;28;975;-65
2021/08/24 02:04:52;;;;;;;9.40;5.93;;;;;;;14.86;85.05;102972.50;685895;28;927;-65
2021/08/24 02:05:17;;;;;;;8.35;5.68;;;;;;;14.87;84.90;102971.59;685624;28;875;-65
2021/08/24 02:05:42;;;;;;;8.73;5.40;;;;;;;14.85;84.64;102968.09;685688;28;907;-64
2021/08/24 02:06:15;;;;;;;8.23;5.80;;;;;;;14.88;84.82;102968.91;685401;28;1618;-65
2021/08/24 02:06:43;;;;;;;7.63;5.50;;;;;;;14.88;84.82;102965.38;683054;28;912;-64
2021/08/24 02:07:09;;;;;;;7.75;5.53;;;;;;;14.89;84.73;102969.78;682850;28;861;-65
2021/08/24 02:07:32;;;;;;;8.02;5.68;;;;;;;14.88;84.75;102968.03;683023;28;868;-65
2021/08/24 02:07:59;;;;;;;8.40;5.70;;;;;;;14.87;84.71;102963.66;682947;28;1580;-65
2021/08/24 02:08:23;;;;;;;8.77;6.00;;;;;;;14.88;84.52;102968.91;683150;28;874;-65
2021/08/24 02:08:52;;;;;;;9.20;6.10;;;;;;;14.87;84.71;102979.56;683153;28;1289;-65
2021/08/24 02:09:29;;;;;;;8.13;5.72;;;;;;;14.86;84.64;102964.53;683322;28;928;-65
2021/08/24 02:09:54;;;;;;;8.63;5.90;;;;;;;14.89;84.80;102972.44;683217;28;852;-65
2021/08/24 02:10:21;;;;;;;7.30;5.85;;;;;;;14.88;84.95;102966.25;683315;28;943;-65
2021/08/24 02:10:45;;;;;;;8.05;5.95;;;;;;;14.88;84.74;102978.66;683228;28;987;-65
2021/08/24 02:11:06;;;;;;;8.75;5.53;;;;;;;14.87;84.79;102974.25;683462;28;856;-65
2021/08/24 02:11:31;;;;;;;7.95;5.60;;;;;;;14.86;85.15;102975.16;683292;28;857;-65